Time;durP1;ratioP1;P1;durP2;ratioP2;P2;SDS_P1;SDS_P2;PMS_P1;PMS_P2;Temp;Humidity;BMP_temperature;BMP_pressure;BME280_temperature;BME280_humidity;BME280_pressure;Samples;Min_cycle;Max_cycle;Signal;HPM_P1;HPM_P2
2023/02/26 00:01:57;;;;;;;40.53;17.85;;;;;;;;;;5055126;28;20024;-71
2023/02/26 00:04:42;;;;;;;40.38;19.83;;;;;;;;;;5054956;28;20085;-72
2023/02/26 00:07:28;;;;;;;38.40;17.98;;;;;;;;;;5055655;28;20024;-72
2023/02/26 00:10:15;;;;;;;37.78;17.17;;;;;;;;;;5053766;28;20013;-72
2023/02/26 00:13:01;;;;;;;34.78;17.38;;;;;;;;;;5054382;28;20104;-73
2023/02/26 00:15:48;;;;;;;31.02;16.30;;;;;;;;;;5054301;28;20406;-73
2023/02/26 00:18:34;;;;;;;32.30;16.23;;;;;;;;;;5054443;28;20052;-73
2023/02/26 00:21:20;;;;;;;30.35;16.10;;;;;;;;;;5055174;28;20083;-74
2023/02/26 00:24:07;;;;;;;35.13;16.50;;;;;;;;;;5061374;28;20123;-72
2023/02/26 00:26:52;;;;;;;28.80;15.23;;;;;;;;;;5058012;28;20031;-72
2023/02/26 00:29:38;;;;;;;28.17;15.15;;;;;;;;;;5055222;28;20143;-71
2023/02/26 00:32:24;;;;;;;31.35;15.75;;;;;;;;;;5054130;28;20039;-73
2023/02/26 00:35:11;;;;;;;33.78;16.17;;;;;;;;;;5053948;28;20017;-72
2023/02/26 00:37:59;;;;;;;31.55;15.30;;;;;;;;;;5053930;28;20024;-70
2023/02/26 00:40:44;;;;;;;27.95;14.75;;;;;;;;;;5054277;28;20029;-71
2023/02/26 00:43:30;;;;;;;32.40;16.10;;;;;;;;;;5053827;28;20361;-73
2023/02/26 00:46:22;;;;;;;28.27;14.15;;;;;;;;;;5058200;28;20032;-72
2023/02/26 00:49:07;;;;;;;32.15;15.07;;;;;;;;;;5053918;28;20071;-71
2023/02/26 00:52:01;;;;;;;31.52;14.50;;;;;;;;;;5053375;28;20048;-72
2023/02/26 00:54:47;;;;;;;39.38;14.32;;;;;;;;;;5053896;28;20033;-73
2023/02/26 00:57:32;;;;;;;24.52;13.35;;;;;;;;;;5054102;28;20025;-72
2023/02/26 01:00:19;;;;;;;26.67;13.90;;;;;;;;;;5054144;28;20056;-72
2023/02/26 01:03:05;;;;;;;29.25;13.73;;;;;;;;;;5053268;28;20025;-72
2023/02/26 01:05:50;;;;;;;33.58;13.55;;;;;;;;;;5054174;28;20500;-72
2023/02/26 01:08:43;;;;;;;31.13;13.50;;;;;;;;;;5055110;28;20025;-71
2023/02/26 01:11:29;;;;;;;28.65;12.68;;;;;;;;;;5064970;28;20048;-71
2023/02/26 01:14:14;;;;;;;28.05;13.05;;;;;;;;;;5034521;28;20028;-72
2023/02/26 01:17:10;;;;;;;25.52;11.45;;;;;;;;;;5033759;28;20086;-72
2023/02/26 01:20:05;;;;;;;23.58;12.55;;;;;;;;;;5035039;28;20096;-71
2023/02/26 01:22:55;;;;;;;25.10;12.23;;;;;;;;;;5034461;28;20039;-71
2023/02/26 01:25:48;;;;;;;29.30;12.07;;;;;;;;;;5034798;28;20100;-71
2023/02/26 01:28:34;;;;;;;23.45;11.57;;;;;;;;;;5035349;28;20024;-72
2023/02/26 01:31:40;;;;;;;26.75;11.68;;;;;;;;;;5033563;28;20403;-72
2023/02/26 01:34:31;;;;;;;31.23;12.48;;;;;;;;;;5031567;28;20137;-72
2023/02/26 01:37:44;;;;;;;22.55;11.85;;;;;;;;;;5034726;28;20025;-71
2023/02/26 01:40:41;;;;;;;28.27;12.43;;;;;;;;;;5034517;28;20468;-72
2023/02/26 01:43:30;;;;;;;24.65;11.88;;;;;;;;;;5033083;28;20029;-72
2023/02/26 01:46:29;;;;;;;25.83;11.48;;;;;;;;;;5034420;28;20097;-72
2023/02/26 01:49:17;;;;;;;26.45;11.57;;;;;;;;;;5034669;28;20017;-72
2023/02/26 01:52:04;;;;;;;21.38;10.43;;;;;;;;;;5034178;28;20458;-72
2023/02/26 01:54:49;;;;;;;26.05;10.10;;;;;;;;;;5034231;28;20338;-71
2023/02/26 01:57:35;;;;;;;24.55;10.40;;;;;;;;;;5034335;28;20021;-69
2023/02/26 02:00:21;;;;;;;19.67;9.70;;;;;;;;;;5034896;28;20089;-71
2023/02/26 02:03:06;;;;;;;20.77;10.63;;;;;;;;;;5033870;28;20056;-70
2023/02/26 02:05:55;;;;;;;20.65;9.95;;;;;;;;;;5034362;28;20481;-71
2023/02/26 02:08:41;;;;;;;24.65;9.40;;;;;;;;;;5035193;28;20017;-70
2023/02/26 02:11:26;;;;;;;24.15;9.63;;;;;;;;;;5034336;28;20025;-71
2023/02/26 02:14:18;;;;;;;24.50;9.15;;;;;;;;;;5036478;28;20342;-72
2023/02/26 02:17:22;;;;;;;21.52;9.15;;;;;;;;;;5037575;28;20114;-71
2023/02/26 02:20:34;;;;;;;19.88;10.15;;;;;;;;;;5037423;28;20323;-71
2023/02/26 02:23:28;;;;;;;24.58;10.02;;;;;;;;;;5038095;28;20033;-71
2023/02/26 02:26:14;;;;;;;20.60;9.50;;;;;;;;;;5035773;28;20018;-72
2023/02/26 02:29:19;;;;;;;24.10;9.75;;;;;;;;;;5037358;28;20080;-71
2023/02/26 02:32:08;;;;;;;19.63;9.48;;;;;;;;;;5036056;28;20042;-70
2023/02/26 02:34:59;;;;;;;21.33;8.88;;;;;;;;;;5036905;28;20052;-71
2023/02/26 02:37:47;;;;;;;19.15;8.73;;;;;;;;;;5037598;28;20025;-72
2023/02/26 02:40:34;;;;;;;25.58;9.73;;;;;;;;;;5036926;28;20030;-71
2023/02/26 02:43:23;;;;;;;17.52;8.65;;;;;;;;;;5037468;28;20025;-71
2023/02/26 02:46:11;;;;;;;18.38;9.07;;;;;;;;;;5036680;28;20358;-70
2023/02/26 02:48:57;;;;;;;16.95;8.48;;;;;;;;;;5037797;28;20049;-71
2023/02/26 02:51:45;;;;;;;20.50;8.82;;;;;;;;;;5036599;28;20331;-72
2023/02/26 02:54:43;;;;;;;16.10;8.18;;;;;;;;;;5036185;28;20163;-71
2023/02/26 02:57:32;;;;;;;22.77;8.15;;;;;;;;;;5036271;28;20078;-71
2023/02/26 03:00:20;;;;;;;21.65;8.13;;;;;;;;;;5037315;28;20021;-71
2023/02/26 03:03:09;;;;;;;17.63;8.23;;;;;;;;;;5037132;28;20022;-71
2023/02/26 03:05:55;;;;;;;24.00;8.10;;;;;;;;;;5036296;28;20100;-72
2023/02/26 03:08:41;;;;;;;24.05;8.50;;;;;;;;;;5036143;28;20143;-72
2023/02/26 03:11:27;;;;;;;23.00;8.45;;;;;;;;;;5036955;28;20021;-72
2023/02/26 03:14:13;;;;;;;21.60;7.80;;;;;;;;;;5037382;28;20108;-72
2023/02/26 03:17:04;;;;;;;20.85;8.05;;;;;;;;;;5035645;28;20021;-72
2023/02/26 03:20:08;;;;;;;22.17;7.55;;;;;;;;;;5036337;28;20049;-71
2023/02/26 03:23:12;;;;;;;18.80;7.55;;;;;;;;;;5035429;28;20083;-71
2023/02/26 03:26:01;;;;;;;26.38;7.13;;;;;;;;;;5035098;28;20449;-72
2023/02/26 03:29:01;;;;;;;24.05;7.32;;;;;;;;;;5035145;28;20460;-72
2023/02/26 03:31:52;;;;;;;14.27;6.80;;;;;;;;;;5034716;28;20048;-72
2023/02/26 03:34:40;;;;;;;20.50;6.35;;;;;;;;;;5036867;28;20422;-72
2023/02/26 03:37:29;;;;;;;22.80;7.15;;;;;;;;;;5036142;28;20109;-72
2023/02/26 03:40:25;;;;;;;22.02;6.57;;;;;;;;;;5036573;28;20456;-73
2023/02/26 03:43:12;;;;;;;21.05;6.97;;;;;;;;;;5035961;28;20025;-71
2023/02/26 03:46:02;;;;;;;15.85;6.43;;;;;;;;;;5036737;28;20017;-72
2023/02/26 03:48:50;;;;;;;16.52;6.35;;;;;;;;;;5037271;28;20124;-72
2023/02/26 03:51:37;;;;;;;19.33;6.97;;;;;;;;;;5036246;28;20017;-72
2023/02/26 03:54:42;;;;;;;19.02;6.50;;;;;;;;;;5036433;28;20028;-72
2023/02/26 03:57:28;;;;;;;18.48;6.35;;;;;;;;;;5035541;28;20452;-73
2023/02/26 04:00:15;;;;;;;16.52;6.40;;;;;;;;;;5035889;28;20026;-71
2023/02/26 04:03:10;;;;;;;15.40;6.95;;;;;;;;;;5034455;28;20473;-72
2023/02/26 04:05:56;;;;;;;19.95;7.00;;;;;;;;;;5035874;28;20029;-73
2023/02/26 04:08:42;;;;;;;20.42;6.88;;;;;;;;;;5039215;28;20022;-70
2023/02/26 04:11:28;;;;;;;13.73;6.22;;;;;;;;;;5037662;28;20031;-71
2023/02/26 04:14:14;;;;;;;18.17;6.07;;;;;;;;;;5034485;28;20033;-72
2023/02/26 04:16:59;;;;;;;19.40;5.35;;;;;;;;;;5035536;28;20100;-73
2023/02/26 04:19:45;;;;;;;23.75;5.78;;;;;;;;;;5034964;28;20461;-71
2023/02/26 04:22:30;;;;;;;21.95;5.70;;;;;;;;;;5035121;28;20029;-71
2023/02/26 04:25:16;;;;;;;13.63;5.60;;;;;;;;;;5034759;28;20022;-71
2023/02/26 04:28:02;;;;;;;18.38;5.80;;;;;;;;;;5036266;28;20401;-72
2023/02/26 04:30:47;;;;;;;24.88;7.20;;;;;;;;;;5035658;28;20450;-72
2023/02/26 04:33:33;;;;;;;18.88;6.43;;;;;;;;;;5035497;28;20041;-72
2023/02/26 04:36:19;;;;;;;22.13;7.45;;;;;;;;;;5035661;28;20488;-72
2023/02/26 04:39:04;;;;;;;27.60;7.38;;;;;;;;;;5034880;28;20036;-72
2023/02/26 04:41:50;;;;;;;19.15;6.20;;;;;;;;;;5035478;28;20037;-72
2023/02/26 04:44:35;;;;;;;16.38;6.90;;;;;;;;;;5035458;28;20036;-72
2023/02/26 04:47:21;;;;;;;18.60;6.80;;;;;;;;;;5034680;28;20025;-72
2023/02/26 04:50:07;;;;;;;20.25;6.00;;;;;;;;;;5034440;28;20025;-73
2023/02/26 04:52:53;;;;;;;19.05;6.93;;;;;;;;;;5035280;28;20039;-73
2023/02/26 04:55:40;;;;;;;18.83;7.05;;;;;;;;;;5035052;28;20026;-72
2023/02/26 04:58:25;;;;;;;22.20;6.72;;;;;;;;;;5035780;28;20025;-72
2023/02/26 05:01:12;;;;;;;25.10;7.03;;;;;;;;;;5036331;28;20116;-72
2023/02/26 05:03:58;;;;;;;23.20;6.97;;;;;;;;;;5035697;28;20056;-71
2023/02/26 05:06:43;;;;;;;21.85;7.10;;;;;;;;;;5034522;28;20075;-71
2023/02/26 05:09:29;;;;;;;24.67;6.47;;;;;;;;;;5034134;28;20013;-72
2023/02/26 05:12:15;;;;;;;21.65;6.82;;;;;;;;;;5034075;28;20021;-72
2023/02/26 05:15:00;;;;;;;25.88;7.57;;;;;;;;;;5034953;28;20426;-73
2023/02/26 05:17:46;;;;;;;19.98;6.35;;;;;;;;;;5035362;28;20052;-71
2023/02/26 05:20:31;;;;;;;19.17;6.07;;;;;;;;;;5032862;28;20025;-71
2023/02/26 05:23:17;;;;;;;18.77;6.78;;;;;;;;;;5035212;28;20033;-72
2023/02/26 05:26:03;;;;;;;17.50;6.72;;;;;;;;;;5034470;28;20030;-72
2023/02/26 05:28:48;;;;;;;18.33;6.68;;;;;;;;;;5034861;28;20040;-73
2023/02/26 05:31:34;;;;;;;19.08;6.28;;;;;;;;;;5032261;28;20028;-73
2023/02/26 05:34:19;;;;;;;21.63;6.05;;;;;;;;;;5034554;28;20096;-73
2023/02/26 05:37:05;;;;;;;17.95;5.78;;;;;;;;;;5034144;28;20025;-73
2023/02/26 05:39:51;;;;;;;17.88;6.18;;;;;;;;;;5032667;28;20476;-72
2023/02/26 05:42:37;;;;;;;16.42;5.80;;;;;;;;;;5035251;28;20033;-72
2023/02/26 05:45:23;;;;;;;13.40;5.55;;;;;;;;;;5034409;28;20101;-73
2023/02/26 05:48:10;;;;;;;20.88;5.85;;;;;;;;;;5033852;28;20446;-72
2023/02/26 05:50:55;;;;;;;17.00;6.05;;;;;;;;;;5038349;28;20036;-71
2023/02/26 05:53:41;;;;;;;15.60;5.80;;;;;;;;;;5039303;28;20079;-73
2023/02/26 05:56:26;;;;;;;17.77;6.05;;;;;;;;;;5038169;28;20033;-72
2023/02/26 05:59:12;;;;;;;23.83;6.45;;;;;;;;;;5037893;28;20116;-71
2023/02/26 06:01:57;;;;;;;20.85;7.35;;;;;;;;;;5037428;28;20095;-72
2023/02/26 06:04:43;;;;;;;19.05;6.25;;;;;;;;;;5036291;28;20033;-73
2023/02/26 06:07:29;;;;;;;21.35;6.57;;;;;;;;;;5037709;28;20049;-72
2023/02/26 06:10:15;;;;;;;17.90;6.10;;;;;;;;;;5038646;28;20108;-73
2023/02/26 06:13:00;;;;;;;28.40;6.85;;;;;;;;;;5037192;28;20026;-72
2023/02/26 06:15:48;;;;;;;32.03;6.95;;;;;;;;;;5037617;28;20161;-72
2023/02/26 06:18:34;;;;;;;20.02;6.50;;;;;;;;;;5038058;28;20030;-71
2023/02/26 06:21:19;;;;;;;20.42;6.75;;;;;;;;;;5039262;28;20422;-72
2023/02/26 06:24:05;;;;;;;19.50;7.28;;;;;;;;;;5036831;28;20026;-72
2023/02/26 06:26:51;;;;;;;23.58;7.85;;;;;;;;;;5037899;28;20082;-72
2023/02/26 06:29:37;;;;;;;25.60;7.32;;;;;;;;;;5037951;28;20048;-72
2023/02/26 06:32:23;;;;;;;17.27;6.60;;;;;;;;;;5037685;28;20084;-73
2023/02/26 06:35:09;;;;;;;18.55;7.00;;;;;;;;;;5036771;28;20029;-72
2023/02/26 06:37:55;;;;;;;25.90;7.38;;;;;;;;;;5037280;28;20017;-71
2023/02/26 06:40:41;;;;;;;25.40;7.55;;;;;;;;;;5037231;28;20021;-71
2023/02/26 06:43:26;;;;;;;24.48;7.75;;;;;;;;;;5037274;28;20025;-71
2023/02/26 06:46:12;;;;;;;31.33;8.13;;;;;;;;;;5037227;28;20029;-71
2023/02/26 06:48:59;;;;;;;25.85;7.97;;;;;;;;;;5037446;28;20014;-71
2023/02/26 06:51:44;;;;;;;24.83;7.57;;;;;;;;;;5037967;28;20101;-73
2023/02/26 06:54:30;;;;;;;24.90;7.45;;;;;;;;;;5037013;28;20017;-72
2023/02/26 06:57:15;;;;;;;29.15;10.63;;;;;;;;;;5036844;28;20043;-72
2023/02/26 07:00:01;;;;;;;23.33;7.53;;;;;;;;;;5035458;28;20018;-71
2023/02/26 07:02:47;;;;;;;22.00;7.25;;;;;;;;;;5036621;28;20021;-71
2023/02/26 07:05:32;;;;;;;17.83;6.82;;;;;;;;;;5035905;28;20349;-71
2023/02/26 07:08:18;;;;;;;26.60;7.50;;;;;;;;;;5036285;28;20033;-72
2023/02/26 07:11:04;;;;;;;18.65;6.95;;;;;;;;;;5036097;28;20045;-71
2023/02/26 07:13:53;;;;;;;19.98;6.55;;;;;;;;;;5037437;28;20021;-71
2023/02/26 07:16:39;;;;;;;22.75;7.10;;;;;;;;;;5035356;28;20036;-72
2023/02/26 07:19:25;;;;;;;21.58;6.70;;;;;;;;;;5036822;28;20097;-72
2023/02/26 07:22:10;;;;;;;24.05;6.95;;;;;;;;;;5036471;28;20036;-71
2023/02/26 07:24:56;;;;;;;24.55;7.57;;;;;;;;;;5037386;28;20504;-73
2023/02/26 07:27:41;;;;;;;17.90;6.72;;;;;;;;;;5036349;28;20028;-71
2023/02/26 07:30:27;;;;;;;19.15;7.22;;;;;;;;;;5035670;28;20033;-72
2023/02/26 07:33:12;;;;;;;20.52;8.55;;;;;;;;;;5035563;28;20467;-72
2023/02/26 07:35:58;;;;;;;21.73;7.95;;;;;;;;;;5036897;28;20119;-72
2023/02/26 07:38:44;;;;;;;22.30;8.05;;;;;;;;;;5034482;28;20025;-73
2023/02/26 07:41:29;;;;;;;23.67;7.28;;;;;;;;;;5035386;28;20395;-72
2023/02/26 07:44:15;;;;;;;22.33;9.48;;;;;;;;;;5035831;28;20092;-72
2023/02/26 07:47:01;;;;;;;24.00;8.32;;;;;;;;;;5036176;28;20079;-72
2023/02/26 07:49:46;;;;;;;23.05;8.45;;;;;;;;;;5035969;28;20373;-72
2023/02/26 07:52:32;;;;;;;25.92;7.38;;;;;;;;;;5035697;28;20017;-73
2023/02/26 07:55:18;;;;;;;17.45;7.40;;;;;;;;;;5036992;28;20025;-71
2023/02/26 07:58:03;;;;;;;25.60;9.20;;;;;;;;;;5036052;28;20040;-72
2023/02/26 08:00:51;;;;;;;16.80;7.13;;;;;;;;;;5034671;28;20052;-71
2023/02/26 08:03:37;;;;;;;19.38;7.50;;;;;;;;;;5035006;28;20493;-71
2023/02/26 08:06:22;;;;;;;27.48;8.80;;;;;;;;;;5036002;28;20108;-71
2023/02/26 08:09:08;;;;;;;20.85;7.10;;;;;;;;;;5035771;28;20021;-71
2023/02/26 08:11:53;;;;;;;20.92;6.70;;;;;;;;;;5035096;28;20121;-73
2023/02/26 08:14:40;;;;;;;26.55;7.47;;;;;;;;;;5035101;28;20017;-72
2023/02/26 08:17:26;;;;;;;14.82;6.13;;;;;;;;;;5036434;28;20030;-71
2023/02/26 08:20:13;;;;;;;19.58;6.03;;;;;;;;;;5034908;28;20017;-72
2023/02/26 08:22:59;;;;;;;16.77;6.82;;;;;;;;;;5035243;28;20025;-71
2023/02/26 08:25:44;;;;;;;29.10;8.82;;;;;;;;;;5034803;28;20017;-72
2023/02/26 08:28:30;;;;;;;21.33;5.95;;;;;;;;;;5034714;28;20014;-72
2023/02/26 08:31:16;;;;;;;17.88;6.20;;;;;;;;;;5035585;28;20055;-72
2023/02/26 08:34:01;;;;;;;19.27;6.05;;;;;;;;;;5034623;28;20468;-72
2023/02/26 08:36:47;;;;;;;20.65;7.20;;;;;;;;;;5034814;28;20445;-72
2023/02/26 08:39:37;;;;;;;19.77;7.88;;;;;;;;;;5034418;28;20032;-72
2023/02/26 08:42:22;;;;;;;18.90;7.03;;;;;;;;;;5035290;28;20040;-71
2023/02/26 08:45:08;;;;;;;22.90;6.30;;;;;;;;;;5037155;28;20029;-73
2023/02/26 08:47:54;;;;;;;15.40;5.47;;;;;;;;;;5035085;28;20031;-71
2023/02/26 08:50:40;;;;;;;17.40;6.03;;;;;;;;;;5035021;28;20021;-71
2023/02/26 08:53:25;;;;;;;21.70;6.03;;;;;;;;;;5033977;28;20032;-73
2023/02/26 08:56:11;;;;;;;28.35;7.55;;;;;;;;;;5034940;28;20036;-72
2023/02/26 08:58:57;;;;;;;25.80;7.22;;;;;;;;;;5036224;28;20127;-72
2023/02/26 09:01:42;;;;;;;15.07;5.60;;;;;;;;;;5034337;28;20361;-71
2023/02/26 09:04:28;;;;;;;21.23;5.90;;;;;;;;;;5034175;28;20025;-72
2023/02/26 09:07:13;;;;;;;13.85;5.88;;;;;;;;;;5034105;28;20079;-72
2023/02/26 09:09:59;;;;;;;24.35;6.30;;;;;;;;;;5034722;28;20172;-72
2023/02/26 09:12:45;;;;;;;24.33;6.20;;;;;;;;;;5035002;28;20224;-72
2023/02/26 09:15:31;;;;;;;30.25;5.72;;;;;;;;;;5034343;28;20026;-71
2023/02/26 09:18:16;;;;;;;21.23;5.95;;;;;;;;;;5034560;28;20037;-70
2023/02/26 09:21:02;;;;;;;20.88;8.02;;;;;;;;;;5034138;28;20128;-73
2023/02/26 09:23:48;;;;;;;17.00;5.90;;;;;;;;;;5038073;28;20466;-72
2023/02/26 09:26:33;;;;;;;22.08;7.32;;;;;;;;;;5038736;28;20025;-72
2023/02/26 09:29:19;;;;;;;23.08;9.23;;;;;;;;;;5038374;28;20068;-71
2023/02/26 09:32:08;;;;;;;22.73;6.22;;;;;;;;;;5037695;28;20178;-71
2023/02/26 09:34:53;;;;;;;19.15;5.70;;;;;;;;;;5038934;28;20048;-70
2023/02/26 09:37:39;;;;;;;24.05;6.05;;;;;;;;;;5038506;28;20026;-71
2023/02/26 09:40:25;;;;;;;16.15;5.80;;;;;;;;;;5039229;28;20017;-71
2023/02/26 09:43:26;;;;;;;24.95;6.32;;;;;;;;;;5037025;28;20330;-72
2023/02/26 09:46:23;;;;;;;23.48;6.03;;;;;;;;;;5037822;28;20105;-72
2023/02/26 09:49:24;;;;;;;18.15;5.55;;;;;;;;;;5038519;28;20017;-72
2023/02/26 09:52:16;;;;;;;23.88;6.80;;;;;;;;;;5038551;28;20047;-71
2023/02/26 09:55:05;;;;;;;20.80;5.20;;;;;;;;;;5038732;28;20095;-71
2023/02/26 09:57:53;;;;;;;23.25;6.18;;;;;;;;;;5037663;28;20018;-70
2023/02/26 10:00:44;;;;;;;32.58;5.95;;;;;;;;;;5040221;28;20438;-70
2023/02/26 10:03:46;;;;;;;30.90;6.65;;;;;;;;;;5038051;28;20056;-71
2023/02/26 10:07:04;;;;;;;24.73;6.05;;;;;;;;;;5038199;28;20392;-72
2023/02/26 10:09:59;;;;;;;21.20;5.97;;;;;;;;;;5005504;28;20111;-71
2023/02/26 10:12:45;;;;;;;22.48;5.80;;;;;;;;;;5038074;28;20029;-73
2023/02/26 10:15:34;;;;;;;26.63;6.85;;;;;;;;;;5037200;28;20029;-71
2023/02/26 10:18:22;;;;;;;22.55;5.70;;;;;;;;;;5038660;28;20056;-70
2023/02/26 10:21:19;;;;;;;24.23;5.70;;;;;;;;;;5038557;28;20025;-70
2023/02/26 10:24:14;;;;;;;21.27;5.93;;;;;;;;;;5037767;28;20083;-71
2023/02/26 10:27:03;;;;;;;17.60;5.60;;;;;;;;;;5037064;28;20022;-72
2023/02/26 10:29:52;;;;;;;20.98;5.47;;;;;;;;;;5036730;28;20022;-73
2023/02/26 10:32:41;;;;;;;20.83;5.32;;;;;;;;;;5036108;28;20064;-72
2023/02/26 10:35:31;;;;;;;18.85;5.15;;;;;;;;;;5036763;28;20025;-71
2023/02/26 10:38:20;;;;;;;20.98;6.07;;;;;;;;;;5035847;28;20025;-72
2023/02/26 10:41:11;;;;;;;19.73;5.82;;;;;;;;;;5037289;28;20026;-71
2023/02/26 10:44:07;;;;;;;16.92;6.38;;;;;;;;;;5037495;28;20018;-73
2023/02/26 10:46:55;;;;;;;20.17;6.28;;;;;;;;;;5037463;28;20461;-71
2023/02/26 10:49:55;;;;;;;19.63;5.95;;;;;;;;;;5036968;28;20082;-75
2023/02/26 10:52:43;;;;;;;22.23;6.30;;;;;;;;;;5037213;28;20322;-73
2023/02/26 10:55:36;;;;;;;25.70;6.55;;;;;;;;;;5037517;28;20036;-71
2023/02/26 10:58:23;;;;;;;33.33;6.45;;;;;;;;;;5048017;28;20025;-71
2023/02/26 11:01:17;;;;;;;24.92;6.25;;;;;;;;;;5074296;28;20082;-71
2023/02/26 11:04:05;;;;;;;27.73;6.35;;;;;;;;;;5074928;28;20021;-73
2023/02/26 11:06:55;;;;;;;29.00;6.55;;;;;;;;;;5075347;28;20109;-72
2023/02/26 11:09:43;;;;;;;34.53;6.43;;;;;;;;;;5075077;28;20044;-72
2023/02/26 11:12:30;;;;;;;23.48;6.50;;;;;;;;;;5075120;28;20025;-73
2023/02/26 11:15:17;;;;;;;22.75;5.63;;;;;;;;;;5074620;28;20090;-74
2023/02/26 11:18:03;;;;;;;26.05;6.05;;;;;;;;;;5074314;28;20024;-70
2023/02/26 11:20:52;;;;;;;58.78;7.22;;;;;;;;;;5076313;28;20035;-73
2023/02/26 11:23:38;;;;;;;22.95;5.55;;;;;;;;;;5074350;28;20326;-71
2023/02/26 11:26:30;;;;;;;23.77;5.47;;;;;;;;;;5076167;28;20033;-72
2023/02/26 11:29:19;;;;;;;23.58;5.32;;;;;;;;;;5074325;28;20050;-72
2023/02/26 11:32:06;;;;;;;31.50;5.93;;;;;;;;;;5074411;28;20079;-72
2023/02/26 11:34:53;;;;;;;29.02;5.55;;;;;;;;;;5074874;28;20027;-73
2023/02/26 11:37:40;;;;;;;38.63;6.70;;;;;;;;;;5074360;28;20048;-72
2023/02/26 11:40:39;;;;;;;22.35;5.90;;;;;;;;;;5074396;28;20384;-72
2023/02/26 11:43:27;;;;;;;20.85;6.10;;;;;;;;;;5074618;28;20471;-71
2023/02/26 11:46:13;;;;;;;25.00;5.53;;;;;;;;;;5074103;28;20030;-73
2023/02/26 11:49:00;;;;;;;37.72;8.30;;;;;;;;;;5073848;28;20052;-72
2023/02/26 11:51:46;;;;;;;21.95;5.63;;;;;;;;;;5075188;28;20020;-71
2023/02/26 11:54:34;;;;;;;21.48;5.47;;;;;;;;;;5073408;28;20028;-72
2023/02/26 11:57:23;;;;;;;21.73;6.07;;;;;;;;;;5075559;28;20025;-72
2023/02/26 12:00:19;;;;;;;21.98;6.03;;;;;;;;;;5074178;28;20025;-75
2023/02/26 12:03:07;;;;;;;23.08;6.28;;;;;;;;;;5073378;28;20051;-73
2023/02/26 12:05:53;;;;;;;32.80;5.97;;;;;;;;;;5074243;28;20031;-70
2023/02/26 12:08:39;;;;;;;25.30;5.82;;;;;;;;;;5074091;28;20017;-72
2023/02/26 12:11:45;;;;;;;16.98;5.25;;;;;;;;;;5073683;28;20096;-72
2023/02/26 12:14:30;;;;;;;25.95;5.88;;;;;;;;;;5073400;28;20025;-71
2023/02/26 12:17:29;;;;;;;22.40;5.30;;;;;;;;;;5073597;28;20012;-71
2023/02/26 12:20:28;;;;;;;20.65;5.05;;;;;;;;;;5075277;28;20468;-72
2023/02/26 12:23:32;;;;;;;23.52;5.07;;;;;;;;;;5074579;28;20346;-70
2023/02/26 12:26:30;;;;;;;14.25;4.55;;;;;;;;;;5073202;28;20039;-72
2023/02/26 12:29:39;;;;;;;22.55;5.68;;;;;;;;;;5056419;28;20352;-71
2023/02/26 12:32:38;;;;;;;20.55;5.28;;;;;;;;;;5071924;28;20056;-72
2023/02/26 12:35:36;;;;;;;40.22;7.68;;;;;;;;;;5074445;28;20403;-71
2023/02/26 12:38:29;;;;;;;16.85;4.97;;;;;;;;;;5073845;28;20028;-71
2023/02/26 12:41:23;;;;;;;23.60;5.10;;;;;;;;;;5073784;28;20361;-72
2023/02/26 12:44:19;;;;;;;20.55;5.07;;;;;;;;;;5073219;28;20028;-72
2023/02/26 12:47:26;;;;;;;13.45;4.93;;;;;;;;;;5073185;28;20016;-71
2023/02/26 12:50:26;;;;;;;20.00;5.25;;;;;;;;;;5073190;28;20039;-69
2023/02/26 12:53:41;;;;;;;14.55;5.03;;;;;;;;;;5065951;28;20021;-71
2023/02/26 12:56:39;;;;;;;18.40;5.35;;;;;;;;;;5008494;28;20086;-70
2023/02/26 12:59:24;;;;;;;18.98;5.18;;;;;;;;;;5054306;28;20112;-71
2023/02/26 13:02:22;;;;;;;25.27;5.00;;;;;;;;;;5053684;28;20025;-70
2023/02/26 13:05:17;;;;;;;25.48;5.72;;;;;;;;;;5054141;28;20024;-72
2023/02/26 13:08:11;;;;;;;19.48;5.32;;;;;;;;;;5054548;28;20031;-71
2023/02/26 13:11:16;;;;;;;21.80;5.30;;;;;;;;;;5054440;28;20021;-70
2023/02/26 13:14:19;;;;;;;15.85;5.07;;;;;;;;;;5053804;28;20029;-70
2023/02/26 13:17:08;;;;;;;19.35;5.85;;;;;;;;;;5054595;28;20452;-72
2023/02/26 13:19:56;;;;;;;15.30;5.70;;;;;;;;;;5053496;28;20021;-71
2023/02/26 13:22:47;;;;;;;25.60;6.20;;;;;;;;;;5054858;28;20036;-71
2023/02/26 13:25:54;;;;;;;20.02;5.93;;;;;;;;;;5057711;28;20035;-72
2023/02/26 13:28:49;;;;;;;29.95;6.30;;;;;;;;;;5055203;28;20025;-72
2023/02/26 13:31:42;;;;;;;21.92;5.50;;;;;;;;;;5055097;28;20086;-70
2023/02/26 13:34:35;;;;;;;19.90;5.95;;;;;;;;;;5054372;28;20081;-70
2023/02/26 13:37:20;;;;;;;21.13;5.82;;;;;;;;;;5056117;28;20021;-71
2023/02/26 13:40:16;;;;;;;18.85;5.35;;;;;;;;;;5057650;28;20047;-71
2023/02/26 13:43:08;;;;;;;23.60;6.15;;;;;;;;;;5053597;28;20048;-70
2023/02/26 13:45:54;;;;;;;18.40;5.18;;;;;;;;;;5057117;28;20158;-72
2023/02/26 13:48:52;;;;;;;19.02;5.47;;;;;;;;;;5057365;28;20017;-71
2023/02/26 13:51:39;;;;;;;32.88;6.20;;;;;;;;;;5057180;28;20049;-72
2023/02/26 13:54:28;;;;;;;23.98;6.20;;;;;;;;;;5055133;28;20497;-71
2023/02/26 13:57:31;;;;;;;17.60;5.70;;;;;;;;;;5053930;28;20025;-70
2023/02/26 14:00:20;;;;;;;19.65;5.63;;;;;;;;;;5054467;28;20016;-71
2023/02/26 14:03:14;;;;;;;23.55;5.32;;;;;;;;;;5055758;28;20029;-70
2023/02/26 14:06:19;;;;;;;19.95;5.72;;;;;;;;;;5054182;28;20405;-72
2023/02/26 14:09:33;;;;;;;19.65;7.18;;;;;;;;;;5055323;28;20057;-71
2023/02/26 14:12:25;;;;;;;20.15;5.80;;;;;;;;;;5056572;28;20099;-71
2023/02/26 14:15:13;;;;;;;16.48;5.25;;;;;;;;;;5061853;28;20440;-70
2023/02/26 14:18:00;;;;;;;26.67;9.45;;;;;;;;;;5059624;28;20025;-70
2023/02/26 14:20:46;;;;;;;15.15;6.45;;;;;;;;;;5060097;28;20047;-70
2023/02/26 14:23:35;;;;;;;17.52;5.75;;;;;;;;;;5059465;28;20125;-71
2023/02/26 14:26:21;;;;;;;21.75;5.90;;;;;;;;;;5061650;28;20024;-72
2023/02/26 14:29:13;;;;;;;25.45;6.45;;;;;;;;;;5058667;28;20028;-71
2023/02/26 14:31:59;;;;;;;13.15;5.90;;;;;;;;;;5056742;28;20495;-72
2023/02/26 14:34:52;;;;;;;18.48;5.85;;;;;;;;;;5058827;28;20017;-71
2023/02/26 14:37:38;;;;;;;20.80;5.78;;;;;;;;;;5058708;28;20033;-73
2023/02/26 14:40:25;;;;;;;15.13;5.53;;;;;;;;;;5057591;28;20021;-70
2023/02/26 14:43:21;;;;;;;21.17;6.20;;;;;;;;;;5058412;28;20051;-72
2023/02/26 14:46:08;;;;;;;17.48;6.03;;;;;;;;;;5057106;28;20045;-72
2023/02/26 14:48:54;;;;;;;14.68;5.50;;;;;;;;;;5058011;28;20017;-72
2023/02/26 14:52:11;;;;;;;18.63;6.30;;;;;;;;;;5056764;28;20021;-70
2023/02/26 14:55:11;;;;;;;18.85;6.45;;;;;;;;;;5024103;28;20033;-72
2023/02/26 14:58:08;;;;;;;18.17;5.43;;;;;;;;;;5057470;28;20071;-71
2023/02/26 15:01:06;;;;;;;23.23;5.55;;;;;;;;;;5057142;28;20448;-71
2023/02/26 15:04:02;;;;;;;17.77;5.43;;;;;;;;;;5059041;28;20021;-71
2023/02/26 15:06:51;;;;;;;28.17;6.28;;;;;;;;;;5058790;28;20357;-73
2023/02/26 15:09:48;;;;;;;28.05;5.82;;;;;;;;;;5051491;28;20053;-72
2023/02/26 15:12:46;;;;;;;20.00;5.35;;;;;;;;;;5037269;28;20164;-71
2023/02/26 15:15:32;;;;;;;21.13;5.40;;;;;;;;;;5037322;28;20091;-72
2023/02/26 15:18:25;;;;;;;20.17;5.63;;;;;;;;;;5036352;28;20083;-70
2023/02/26 15:21:22;;;;;;;20.08;5.63;;;;;;;;;;5041402;28;20048;-73
2023/02/26 15:24:10;;;;;;;17.25;5.47;;;;;;;;;;5055179;28;20026;-72
2023/02/26 15:27:01;;;;;;;16.02;5.90;;;;;;;;;;5053295;28;20025;-70
2023/02/26 15:29:49;;;;;;;30.85;9.93;;;;;;;;;;5052985;28;20013;-72
2023/02/26 15:32:36;;;;;;;28.92;5.57;;;;;;;;;;5040498;28;20053;-71
2023/02/26 15:35:22;;;;;;;19.45;5.53;;;;;;;;;;5054025;28;20443;-72
2023/02/26 15:38:08;;;;;;;19.90;6.22;;;;;;;;;;5052030;28;20029;-72
2023/02/26 15:40:55;;;;;;;23.58;5.72;;;;;;;;;;5041797;28;20025;-70
2023/02/26 15:43:44;;;;;;;47.72;7.22;;;;;;;;;;5042804;28;20519;-72
2023/02/26 15:46:35;;;;;;;19.17;5.32;;;;;;;;;;5045099;28;20030;-71
2023/02/26 15:49:25;;;;;;;27.25;5.47;;;;;;;;;;5041428;28;20105;-73
2023/02/26 15:52:14;;;;;;;20.92;5.50;;;;;;;;;;5039360;28;20071;-73
2023/02/26 15:55:04;;;;;;;14.68;5.65;;;;;;;;;;5055072;28;20017;-72
2023/02/26 15:57:50;;;;;;;19.00;6.03;;;;;;;;;;5053633;28;20060;-72
2023/02/26 16:00:36;;;;;;;15.25;5.80;;;;;;;;;;5039748;28;20022;-71
2023/02/26 16:03:26;;;;;;;19.40;6.03;;;;;;;;;;5054220;28;20044;-71
2023/02/26 16:06:15;;;;;;;16.63;4.93;;;;;;;;;;5042748;28;20021;-73
2023/02/26 16:09:03;;;;;;;20.70;5.75;;;;;;;;;;5040597;28;20021;-71
2023/02/26 16:11:48;;;;;;;23.63;5.80;;;;;;;;;;5040779;28;20025;-72
2023/02/26 16:14:36;;;;;;;17.98;5.38;;;;;;;;;;5050940;28;20108;-71
2023/02/26 16:17:26;;;;;;;18.40;5.47;;;;;;;;;;5037223;28;20163;-72
2023/02/26 16:20:14;;;;;;;19.92;5.70;;;;;;;;;;5040897;28;20017;-71
2023/02/26 16:23:05;;;;;;;18.55;5.35;;;;;;;;;;5041995;28;20018;-72
2023/02/26 16:26:04;;;;;;;18.30;5.28;;;;;;;;;;5039229;28;20056;-73
2023/02/26 16:28:55;;;;;;;16.55;5.68;;;;;;;;;;5041513;28;20115;-72
2023/02/26 16:31:51;;;;;;;15.48;5.68;;;;;;;;;;5051890;28;20028;-73
2023/02/26 16:34:48;;;;;;;18.13;5.82;;;;;;;;;;5059064;28;20449;-72
2023/02/26 16:37:36;;;;;;;19.73;6.25;;;;;;;;;;5059751;28;20057;-73
2023/02/26 16:40:26;;;;;;;18.05;6.03;;;;;;;;;;5059072;28;20052;-72